.
WxDataArchive / Data Records for 2012-05-13
2012-05-12 May 2012 2012-05-14

Data Records for Sunday, 13 May 2012

Time	Temp	Chill	HIndex	Humid	Dewpt	 Wind 	HiWind	WindDir	Rain 	Barom 
-----	----	-----	------	-----	-----	------	------	-------	-----	----- 
00:00	60.9	60.9	60.9	81	55.0	0	0	---	0.00	30.166 
00:05	60.7	60.7	60.7	82	55.2	0	0	---	0.00	30.166 
00:10	60.5	60.5	60.5	82	55.0	0	0	---	0.00	30.166 
00:15	60.4	60.4	60.4	82	54.9	0	0	---	0.00	30.167 
00:20	60.2	60.2	60.2	82	54.7	0	0	---	0.00	30.167 
00:25	60.1	60.1	60.1	83	54.9	0	0	---	0.00	30.167 
00:30	59.8	59.8	59.8	83	54.6	0	0	---	0.00	30.166 
00:35	59.6	59.6	59.6	84	54.8	0	0	---	0.00	30.166 
00:40	59.6	59.6	59.6	84	54.8	0	0	---	0.00	30.166 
00:45	59.5	59.5	59.5	84	54.7	0	0	---	0.00	30.168 
00:50	59.2	59.2	59.2	84	54.4	0	0	---	0.00	30.168 
00:55	59.0	59.0	59.0	84	54.2	0	0	---	0.00	30.168 
01:00	58.9	58.9	58.9	85	54.4	0	0	---	0.00	30.166 
01:05	58.6	58.6	58.6	85	54.1	0	0	---	0.00	30.166 
01:10	58.4	58.4	58.4	85	53.9	0	0	---	0.00	30.166 
01:15	58.1	58.1	58.1	86	53.9	0	0	---	0.00	30.163 
01:20	58.0	58.0	58.0	86	53.8	0	0	---	0.00	30.163 
01:25	57.8	57.8	57.8	87	54.0	0	0	---	0.00	30.163 
01:30	57.6	57.6	57.6	87	53.8	0	0	---	0.00	30.159 
01:35	57.5	57.5	57.5	88	54.0	0	0	---	0.00	30.159 
01:40	57.5	57.5	57.5	88	54.0	0	0	---	0.00	30.159 
01:45	57.5	57.5	57.5	88	54.0	0	0	---	0.00	30.159 
01:50	57.6	57.6	57.6	89	54.4	0	0	---	0.00	30.159 
01:55	57.8	57.8	57.8	89	54.6	0	0	---	0.00	30.159 
02:00	57.8	57.8	57.8	89	54.6	0	0	---	0.00	30.161 
02:05	57.8	57.8	57.8	89	54.6	0	0	---	0.00	30.161 
02:10	57.8	57.8	57.8	89	54.6	0	0	---	0.00	30.161 
02:15	57.8	57.8	57.8	89	54.6	0	0	---	0.00	30.151 
02:20	57.6	57.6	57.6	89	54.4	0	0	---	0.00	30.151 
02:25	57.6	57.6	57.6	89	54.4	0	0	---	0.00	30.151 
02:30	57.5	57.5	57.5	89	54.3	0	0	---	0.00	30.149 
02:35	57.5	57.5	57.5	89	54.3	0	0	---	0.00	30.149 
02:40	57.3	57.3	57.3	89	54.1	0	0	---	0.00	30.149 
02:45	57.2	57.2	57.2	89	54.0	0	0	---	0.00	30.147 
02:50	56.9	56.9	56.9	89	53.7	0	0	---	0.00	30.147 
02:55	56.7	56.7	56.7	89	53.5	0	0	---	0.00	30.147 
03:00	56.6	56.6	56.6	90	53.7	0	0	---	0.00	30.147 
03:05	56.6	56.6	56.6	90	53.7	0	0	---	0.00	30.147 
03:10	56.6	56.6	56.6	90	53.7	0	0	---	0.00	30.147 
03:15	56.6	56.6	56.6	91	54.0	0	0	---	0.00	30.146 
03:20	56.7	56.7	56.7	91	54.1	0	0	---	0.00	30.146 
03:25	56.9	56.9	56.9	92	54.6	0	0	---	0.00	30.146 
03:30	57.0	57.0	57.0	92	54.7	0	0	---	0.00	30.147 
03:35	57.0	57.0	57.0	92	54.7	0	0	---	0.00	30.147 
03:40	57.0	57.0	57.0	92	54.7	0	0	---	0.00	30.147 
03:45	57.0	57.0	57.0	92	54.7	0	0	---	0.00	30.148 
03:50	56.9	56.9	56.9	92	54.6	0	0	---	0.00	30.148 
03:55	56.7	56.7	56.7	92	54.4	0	0	---	0.00	30.148 
04:00	56.6	56.6	56.6	92	54.3	0	0	---	0.00	30.149 
04:05	56.5	56.5	56.5	92	54.2	0	0	---	0.00	30.149 
04:10	56.5	56.5	56.5	92	54.2	0	0	---	0.00	30.149 
04:15	56.5	56.5	56.5	92	54.2	0	0	---	0.00	30.144 
04:20	56.5	56.5	56.5	93	54.5	0	0	---	0.00	30.144 
04:25	56.5	56.5	56.5	93	54.5	0	0	---	0.00	30.144 
04:30	56.5	56.5	56.5	93	54.5	0	0	---	0.00	30.142 
04:35	56.5	56.5	56.5	93	54.5	0	0	---	0.00	30.142 
04:40	56.6	56.6	56.6	93	54.6	0	0	---	0.00	30.142 
04:45	56.6	56.6	56.6	93	54.6	0	0	---	0.00	30.144 
04:50	56.6	56.6	56.6	93	54.6	0	0	---	0.00	30.144 
04:55	56.6	56.6	56.6	94	54.9	0	0	---	0.00	30.144 
05:00	56.7	56.7	56.7	94	55.0	0	0	---	0.00	30.147 
05:05	56.7	56.7	56.7	94	55.0	0	0	---	0.00	30.147 
05:10	56.7	56.7	56.7	94	55.0	0	0	---	0.00	30.147 
05:15	56.6	56.6	56.6	94	54.9	0	0	---	0.00	30.148 
05:20	56.5	56.5	56.5	94	54.8	0	0	---	0.00	30.148 
05:25	56.3	56.3	56.3	94	54.6	0	0	---	0.00	30.148 
05:30	56.2	56.2	56.2	94	54.5	0	0	---	0.00	30.150 
05:35	56.3	56.3	56.3	94	54.6	0	0	---	0.00	30.150 
05:40	56.3	56.3	56.3	94	54.6	0	0	---	0.00	30.150 
05:45	56.3	56.3	56.3	94	54.6	0	0	---	0.00	30.153 
05:50	56.3	56.3	56.3	94	54.6	0	0	---	0.00	30.153 
05:55	56.3	56.3	56.3	94	54.6	0	0	---	0.00	30.153 
06:00	56.3	56.3	56.3	94	54.6	0	0	---	0.00	30.152 
06:05	56.3	56.3	56.3	95	54.9	0	0	---	0.00	30.152 
06:10	56.5	56.5	56.5	95	55.1	0	0	---	0.00	30.152 
06:15	56.5	56.5	56.5	95	55.1	0	0	---	0.00	30.154 
06:20	56.5	56.5	56.5	95	55.1	0	0	---	0.00	30.154 
06:25	56.5	56.5	56.5	95	55.1	0	0	---	0.00	30.154 
06:30	56.6	56.6	56.6	95	55.2	0	0	---	0.00	30.162 
06:35	56.7	56.7	56.7	95	55.3	0	0	---	0.00	30.162 
06:40	56.7	56.7	56.7	95	55.3	0	0	---	0.00	30.162 
06:45	56.7	56.7	56.7	95	55.3	0	0	---	0.00	30.163 
06:50	56.9	56.9	56.9	95	55.5	0	0	---	0.00	30.163 
06:55	56.9	56.9	56.9	95	55.5	0	0	---	0.00	30.163 
07:00	57.0	57.0	57.0	95	55.6	0	0	---	0.00	30.166 
07:05	57.0	57.0	57.0	95	55.6	0	0	---	0.00	30.166 
07:10	57.2	57.2	57.2	95	55.8	0	0	---	0.00	30.166 
07:15	57.2	57.2	57.2	95	55.8	0	0	---	0.00	30.167 
07:20	57.3	57.3	57.3	95	55.9	0	0	---	0.00	30.167 
07:25	57.5	57.5	57.5	95	56.1	0	0	---	0.00	30.167 
07:30	57.6	57.6	57.6	95	56.2	0	0	---	0.00	30.168 
07:35	57.6	57.6	57.6	95	56.2	0	2	112	0.00	30.168 
07:40	58.0	58.0	58.0	96	56.9	0	1	0	0.00	30.168 
07:45	58.1	58.1	58.1	95	56.7	0	2	68	0.00	30.170 
07:50	58.3	58.3	58.3	96	57.2	0	2	68	0.00	30.170 
07:55	58.4	58.4	58.4	95	57.0	0	3	68	0.00	30.170 
08:00	58.6	58.6	58.6	95	57.2	1	5	68	0.00	30.170 
08:05	58.7	58.7	58.7	95	57.3	0	3	90	0.00	30.170 
08:10	58.9	58.9	58.9	95	57.5	0	2	90	0.00	30.170 
08:15	59.0	59.0	59.0	95	57.6	1	4	112	0.00	30.172 
08:20	59.2	59.2	59.2	95	57.8	1	3	112	0.00	30.172 
08:25	59.3	59.3	59.3	95	57.9	1	5	90	0.00	30.172 
08:30	59.5	59.5	59.5	95	58.1	0	2	90	0.00	30.171 
08:35	59.6	59.6	59.6	94	57.9	0	2	90	0.00	30.171 
08:40	59.8	59.8	59.8	94	58.1	1	5	90	0.00	30.171 
08:45	59.9	59.9	59.9	94	58.2	2	5	90	0.00	30.171 
08:50	60.1	60.1	60.1	93	58.1	1	4	90	0.00	30.171 
08:55	60.2	60.2	60.2	92	57.9	2	9	90	0.00	30.171 
09:00	60.1	60.1	60.1	92	57.8	2	8	112	0.00	30.171 
09:05	60.2	60.2	60.2	91	57.6	2	5	90	0.00	30.171 
09:10	60.4	60.4	60.4	91	57.8	2	5	112	0.00	30.171 
09:15	60.5	60.5	60.5	90	57.5	2	5	90	0.00	30.171 
09:20	60.9	60.9	60.9	90	57.9	1	5	68	0.00	30.171 
09:25	60.9	60.9	60.9	89	57.6	2	5	90	0.00	30.171 
09:30	61.0	61.0	61.0	88	57.4	1	4	112	0.00	30.173 
09:35	61.2	61.2	61.2	88	57.6	1	5	112	0.00	30.173 
09:40	61.2	61.2	61.2	88	57.6	1	6	90	0.00	30.173 
09:45	61.3	61.3	61.3	87	57.4	2	4	90	0.00	30.174 
09:50	61.5	61.5	61.5	88	57.9	0	4	90	0.00	30.174 
09:55	62.0	62.0	62.0	87	58.1	1	3	90	0.00	30.174 
10:00	62.1	62.1	62.1	85	57.5	2	5	112	0.00	30.172 
10:05	62.3	62.3	62.3	85	57.7	2	6	68	0.00	30.172 
10:10	62.7	62.7	62.7	84	57.8	1	4	112	0.00	30.172 
10:15	63.4	63.4	63.4	84	58.5	1	5	112	0.00	30.172 
10:20	63.7	63.7	63.7	81	57.8	2	5	90	0.00	30.172 
10:25	63.5	63.5	63.5	80	57.2	3	7	90	0.00	30.172 
10:30	63.7	63.7	63.7	80	57.4	2	8	112	0.00	30.170 
10:35	64.0	64.0	64.0	79	57.4	2	5	90	0.00	30.170 
10:40	64.2	64.2	64.2	79	57.5	2	5	112	0.00	30.170 
10:45	64.2	64.2	64.2	78	57.2	2	5	112	0.00	30.165 
10:50	64.7	64.7	64.7	79	58.0	2	5	112	0.00	30.165 
10:55	65.0	65.0	65.0	78	58.0	1	4	112	0.00	30.165 
11:00	65.6	65.6	65.6	76	57.8	2	4	112	0.00	30.160 
11:05	66.1	66.1	66.1	75	57.9	0	2	112	0.00	30.160 
11:10	66.6	66.6	66.6	73	57.7	2	6	112	0.00	30.160 
11:15	66.9	66.9	66.9	73	58.0	2	7	90	0.00	30.160 
11:20	66.9	66.9	66.9	71	57.2	3	10	90	0.00	30.160 
11:25	67.4	67.4	67.4	71	57.7	2	5	112	0.00	30.160 
11:30	67.8	67.8	67.8	67	56.4	3	7	112	0.00	30.160 
11:35	68.1	68.1	68.1	69	57.5	2	6	112	0.00	30.160 
11:40	68.3	68.3	68.3	67	56.9	2	10	90	0.00	30.160 
11:45	68.8	68.8	68.8	68	57.8	2	5	112	0.00	30.155 
11:50	68.9	68.9	68.9	66	57.1	2	7	112	0.00	30.155 
11:55	68.9	68.9	68.9	67	57.5	2	7	90	0.00	30.155 
12:00	69.1	69.1	69.1	68	58.1	2	6	90	0.00	30.155 
12:05	68.8	68.8	68.8	70	58.6	1	6	112	0.00	30.155 
12:10	68.6	68.6	68.6	70	58.4	1	5	90	0.00	30.155 
12:15	68.8	68.8	68.8	69	58.2	1	4	112	0.00	30.154 
12:20	69.1	69.1	69.1	69	58.5	1	4	135	0.00	30.154 
12:25	69.3	69.3	69.3	69	58.7	3	7	90	0.00	30.154 
12:30	69.4	69.4	69.4	66	57.5	2	7	68	0.00	30.154 
12:35	69.8	69.8	69.8	65	57.5	2	6	112	0.00	30.154 
12:40	70.1	70.1	70.1	65	57.8	1	4	135	0.00	30.154 
12:45	70.1	70.1	70.1	65	57.8	2	6	112	0.00	30.151 
12:50	70.1	70.1	70.1	62	56.5	2	4	112	0.00	30.151 
12:55	70.4	70.4	70.4	62	56.7	2	7	112	0.00	30.151 
13:00	70.8	70.8	70.8	64	58.0	2	6	112	0.00	30.145 
13:05	70.9	70.9	70.9	65	58.5	2	6	112	0.00	30.145 
13:10	70.9	70.9	70.9	59	55.8	3	7	112	0.00	30.145 
13:15	70.9	70.9	70.9	60	56.3	2	6	112	0.00	30.139 
13:20	71.1	71.1	71.1	60	56.5	2	6	68	0.00	30.139 
13:25	71.5	71.5	71.5	59	56.4	1	4	90	0.00	30.139 
13:30	72.0	72.0	72.0	62	58.3	1	4	90	0.00	30.132 
13:35	72.3	72.3	72.3	58	56.7	2	5	90	0.00	30.132 
13:40	72.3	72.3	72.3	58	56.7	2	4	112	0.00	30.132 
13:45	72.3	72.3	72.3	55	55.2	1	4	112	0.00	30.127 
13:50	72.5	72.5	72.5	58	56.9	1	5	135	0.00	30.127 
13:55	72.3	72.3	72.3	57	56.2	1	4	112	0.00	30.127 
14:00	72.3	72.3	72.3	58	56.7	1	6	90	0.00	30.123 
14:05	72.1	72.1	72.1	55	55.0	1	7	90	0.00	30.123 
14:10	71.8	71.8	71.8	55	54.7	1	4	90	0.00	30.123 
14:15	72.1	72.1	72.1	55	55.0	1	5	90	0.00	30.121 
14:20	72.8	72.8	72.8	54	55.2	1	5	90	0.00	30.121 
14:25	73.2	73.2	73.2	53	55.0	1	4	90	0.00	30.121 
14:30	72.8	72.8	72.8	50	53.1	1	4	90	0.00	30.115 
14:35	73.0	73.0	73.0	51	53.8	0	3	90	0.00	30.115 
14:40	72.5	72.5	72.5	52	53.9	1	3	248	0.00	30.115 
14:45	72.8	72.8	72.8	50	53.1	1	5	68	0.00	30.106 
14:50	73.3	73.3	73.3	50	53.5	1	4	90	0.00	30.106 
14:55	73.3	73.3	73.3	48	52.4	1	4	90	0.00	30.106 
15:00	73.7	73.7	73.7	50	53.9	1	5	112	0.00	30.104 
15:05	73.7	73.7	73.7	49	53.3	1	6	90	0.00	30.104 
15:10	73.9	73.9	73.9	46	51.8	0	2	315	0.00	30.104 
15:15	74.2	74.2	74.2	49	53.8	0	3	315	0.00	30.094 
15:20	74.4	74.4	74.4	49	54.0	1	4	90	0.00	30.094 
15:25	74.6	74.6	74.6	46	52.4	1	4	22	0.00	30.094 
15:30	75.1	75.1	77.6	45	52.3	1	2	0	0.00	30.091 
15:35	75.1	75.1	77.6	44	51.7	2	6	112	0.00	30.091 
15:40	75.1	75.1	77.7	46	52.9	1	4	112	0.00	30.091 
15:45	75.1	75.1	77.6	44	51.7	2	5	112	0.00	30.088 
15:50	74.9	74.9	74.9	44	51.5	1	5	112	0.00	30.088 
15:55	75.1	75.1	77.7	46	52.9	1	4	68	0.00	30.088 
16:00	75.3	75.3	77.7	44	51.9	0	2	68	0.00	30.081 
16:05	75.6	75.6	77.8	44	52.1	1	4	68	0.00	30.081 
16:10	75.4	75.4	77.7	43	51.3	2	6	112	0.00	30.081 
16:15	75.3	75.3	77.7	43	51.2	1	5	135	0.00	30.076 
16:20	75.3	75.3	77.7	44	51.9	1	4	22	0.00	30.076 
16:25	75.3	75.3	77.7	43	51.2	1	3	112	0.00	30.076 
16:30	74.9	74.9	74.9	44	51.5	1	4	112	0.00	30.073 
16:35	74.7	74.7	74.7	43	50.7	1	3	112	0.00	30.073 
16:40	74.7	74.7	74.7	45	51.9	1	5	112	0.00	30.073 
16:45	74.6	74.6	74.6	45	51.8	1	3	90	0.00	30.072 
16:50	74.9	74.9	74.9	45	52.1	0	2	90	0.00	30.072 
16:55	74.9	74.9	74.9	44	51.5	1	5	90	0.00	30.072 
17:00	74.9	74.9	74.9	46	52.7	1	3	90	0.00	30.072 
17:05	74.4	74.4	74.4	45	51.7	1	2	90	0.00	30.072 
17:10	74.0	74.0	74.0	44	50.7	1	5	315	0.00	30.072 
17:15	74.0	74.0	74.0	44	50.7	1	4	90	0.00	30.074 
17:20	74.0	74.0	74.0	45	51.3	1	4	112	0.00	30.074 
17:25	74.0	74.0	74.0	45	51.3	1	4	112	0.00	30.074 
17:30	74.2	74.2	74.2	46	52.1	1	4	112	0.00	30.073 
17:35	74.2	74.2	74.2	44	50.9	0	2	0	0.00	30.073 
17:40	74.0	74.0	74.0	46	51.9	0	3	0	0.00	30.073 
17:45	73.9	73.9	73.9	43	50.0	1	4	270	0.00	30.068 
17:50	74.0	74.0	74.0	44	50.7	0	2	68	0.00	30.068 
17:55	73.9	73.9	73.9	44	50.6	2	8	90	0.00	30.068 
18:00	73.5	73.5	73.5	46	51.4	1	6	90	0.00	30.066 
18:05	73.5	73.5	73.5	45	50.8	1	4	135	0.00	30.066 
18:10	73.3	73.3	73.3	45	50.7	1	4	112	0.00	30.066 
18:15	73.2	73.2	73.2	46	51.2	1	6	112	0.00	30.065 
18:20	73.2	73.2	73.2	49	52.9	1	3	112	0.00	30.065 
18:25	73.2	73.2	73.2	46	51.2	1	5	68	0.00	30.065 
18:30	73.0	73.0	73.0	46	51.0	1	4	68	0.00	30.067 
18:35	72.8	72.8	72.8	46	50.8	1	5	112	0.00	30.067 
18:40	72.7	72.7	72.7	46	50.7	1	6	112	0.00	30.067 
18:45	72.5	72.5	72.5	47	51.1	1	5	112	0.00	30.063 
18:50	72.3	72.3	72.3	49	52.1	1	4	45	0.00	30.063 
18:55	72.1	72.1	72.1	48	51.3	1	4	270	0.00	30.063 
19:00	72.1	72.1	72.1	50	52.4	0	1	248	0.00	30.064 
19:05	72.1	72.1	72.1	50	52.4	1	3	112	0.00	30.064 
19:10	72.0	72.0	72.0	49	51.8	1	5	135	0.00	30.064 
19:15	71.8	71.8	71.8	49	51.6	1	4	135	0.00	30.063 
19:20	71.6	71.6	71.6	49	51.4	1	4	68	0.00	30.063 
19:25	71.5	71.5	71.5	49	51.3	1	4	112	0.00	30.063 
19:30	71.5	71.5	71.5	49	51.3	1	3	90	0.00	30.067 
19:35	71.3	71.3	71.3	49	51.1	1	3	90	0.00	30.067 
19:40	71.1	71.1	71.1	50	51.5	1	3	90	0.00	30.067 
19:45	70.9	70.9	70.9	51	51.9	1	4	90	0.00	30.066 
19:50	70.8	70.8	70.8	51	51.8	0	2	90	0.00	30.066 
19:55	70.4	70.4	70.4	51	51.4	1	4	90	0.00	30.066 
20:00	70.3	70.3	70.3	52	51.8	1	6	90	0.00	30.070 
20:05	69.9	69.9	69.9	53	52.0	1	3	112	0.00	30.070 
20:10	69.8	69.8	69.8	54	52.4	1	3	112	0.00	30.070 
20:15	69.4	69.4	69.4	54	52.0	0	3	112	0.00	30.073 
20:20	69.3	69.3	69.3	54	51.9	0	1	112	0.00	30.073 
20:25	69.1	69.1	69.1	54	51.7	1	3	112	0.00	30.073 
20:30	68.9	68.9	68.9	54	51.6	1	3	112	0.00	30.076 
20:35	68.8	68.8	68.8	55	52.0	0	3	112	0.00	30.076 
20:40	68.4	68.4	68.4	56	52.1	0	3	112	0.00	30.076 
20:45	68.3	68.3	68.3	56	52.0	0	2	112	0.00	30.078 
20:50	68.1	68.1	68.1	56	51.8	0	2	158	0.00	30.078 
20:55	67.8	67.8	67.8	57	52.0	0	3	158	0.00	30.078 
21:00	67.6	67.6	67.6	57	51.8	0	1	158	0.00	30.080 
21:05	67.3	67.3	67.3	58	52.0	0	0	---	0.00	30.080 
21:10	66.9	66.9	66.9	58	51.6	0	1	158	0.00	30.080 
21:15	66.6	66.6	66.6	59	51.8	0	1	158	0.00	30.080 
21:20	66.4	66.4	66.4	59	51.6	0	2	158	0.00	30.080 
21:25	66.3	66.3	66.3	60	52.0	0	1	158	0.00	30.080 
21:30	66.0	66.0	66.0	61	52.2	0	2	158	0.00	30.084 
21:35	65.8	65.8	65.8	61	52.0	0	1	158	0.00	30.084 
21:40	65.6	65.6	65.6	61	51.8	0	1	158	0.00	30.084 
21:45	65.3	65.3	65.3	62	51.9	0	2	158	0.00	30.090 
21:50	65.2	65.2	65.2	62	51.8	1	3	112	0.00	30.090 
21:55	65.0	65.0	65.0	61	51.2	0	3	112	0.00	30.090 
22:00	64.8	64.8	64.8	62	51.5	1	4	112	0.00	30.094 
22:05	64.7	64.7	64.7	62	51.4	1	3	112	0.00	30.094 
22:10	64.5	64.5	64.5	62	51.2	1	3	112	0.00	30.094 
22:15	64.2	64.2	64.2	62	50.9	0	2	112	0.00	30.093 
22:20	64.0	64.0	64.0	63	51.1	0	2	112	0.00	30.093 
22:25	63.9	63.9	63.9	63	51.1	1	2	112	0.00	30.093 
22:30	63.7	63.7	63.7	64	51.3	0	3	112	0.00	30.094 
22:35	63.4	63.4	63.4	64	51.0	0	2	112	0.00	30.094 
22:40	63.2	63.2	63.2	64	50.8	0	2	112	0.00	30.094 
22:45	63.1	63.1	63.1	64	50.7	0	2	112	0.00	30.097 
22:50	62.9	62.9	62.9	64	50.5	0	2	112	0.00	30.097 
22:55	62.7	62.7	62.7	65	50.8	0	2	112	0.00	30.097 
23:00	62.6	62.6	62.6	65	50.7	0	1	112	0.00	30.096 
23:05	62.4	62.4	62.4	65	50.5	0	1	112	0.00	30.096 
23:10	62.3	62.3	62.3	65	50.4	0	1	112	0.00	30.096 
23:15	62.0	62.0	62.0	66	50.5	0	0	---	0.00	30.091 
23:20	61.8	61.8	61.8	66	50.3	0	0	---	0.00	30.091 
23:25	61.6	61.6	61.6	67	50.5	0	0	---	0.00	30.091 
23:30	61.3	61.3	61.3	68	50.6	0	0	---	0.00	30.090 
23:35	61.0	61.0	61.0	68	50.4	0	0	---	0.00	30.090 
23:40	60.7	60.7	60.7	69	50.5	0	0	---	0.00	30.090 
23:45	60.4	60.4	60.4	69	50.2	0	0	---	0.00	30.089 
23:50	60.1	60.1	60.1	70	50.3	0	0	---	0.00	30.089 
23:55	59.8	59.8	59.8	70	50.0	0	0	---	0.00	30.089 

CoCoRaHS
IN-AL-39
A2 Web Hosting
Creative Commons License
GoDaddy
search engine by freefind advanced

loaded 2018-11-18 11:48:40 • last modified 2010-11-18 10:43:29
Privacy PolicyDisclaimer
• wx.awcolley.com is powered by PmWiki v.2002016 •
• all content (unless otherwise noted) © 2018 A W Colley